createdAt,value
2022-08-28T00:01:39.963Z,11.38
2022-08-28T00:04:42.536Z,11.90
2022-08-28T00:07:47.869Z,11.32
2022-08-28T00:10:50.074Z,10.93
2022-08-28T00:13:51.878Z,11.82
2022-08-28T00:16:54.704Z,10.80
2022-08-28T00:19:56.656Z,9.77
2022-08-28T00:22:59.575Z,11.18
2022-08-28T00:26:02.606Z,10.43
2022-08-28T00:29:06.858Z,10.32
2022-08-28T00:32:08.904Z,10.75
2022-08-28T00:35:12.516Z,10.60
2022-08-28T00:38:15.440Z,10.80
2022-08-28T00:41:17.661Z,12.73
2022-08-28T00:44:29.035Z,10.52
2022-08-28T00:47:30.899Z,10.18
2022-08-28T00:50:54.598Z,10.73
2022-08-28T00:54:07.371Z,10.48
2022-08-28T00:57:15.349Z,10.05
2022-08-28T01:00:25.445Z,11.43
2022-08-28T01:03:27.525Z,11.63
2022-08-28T01:06:29.239Z,10.00
2022-08-28T01:09:32.850Z,10.15
2022-08-28T01:12:35.807Z,11.27
2022-08-28T01:15:39.095Z,11.25
2022-08-28T01:18:43.197Z,11.75
2022-08-28T01:22:04.809Z,10.63
2022-08-28T01:25:11.507Z,9.93
2022-08-28T01:28:14.501Z,9.77
2022-08-28T01:31:17.270Z,9.57
2022-08-28T01:34:19.146Z,10.85
2022-08-28T01:37:21.124Z,11.55
2022-08-28T01:40:32.646Z,9.80
2022-08-28T01:43:34.562Z,9.10
2022-08-28T01:46:36.570Z,10.02
2022-08-28T01:49:38.369Z,10.15
2022-08-28T01:52:40.405Z,9.82
2022-08-28T01:55:43.532Z,9.32
2022-08-28T01:58:48.160Z,10.52
2022-08-28T02:01:50.040Z,11.43
2022-08-28T02:04:53.310Z,9.75
2022-08-28T02:07:56.062Z,9.27
2022-08-28T02:10:58.028Z,9.63
2022-08-28T02:14:01.503Z,11.13
2022-08-28T02:17:03.325Z,11.05
2022-08-28T02:20:06.028Z,18.70
2022-08-28T02:23:07.786Z,9.57
2022-08-28T02:26:11.193Z,9.25
2022-08-28T02:29:13.551Z,9.90
2022-08-28T02:32:15.474Z,10.00
2022-08-28T02:35:19.649Z,8.60
2022-08-28T02:38:22.702Z,11.85
2022-08-28T02:41:24.694Z,9.93
2022-08-28T02:44:26.428Z,9.55
2022-08-28T02:47:28.317Z,9.88
2022-08-28T02:50:31.181Z,10.80
2022-08-28T02:53:33.035Z,9.98
2022-08-28T02:56:34.745Z,10.48
2022-08-28T02:59:38.001Z,11.23
2022-08-28T03:02:41.708Z,9.10
2022-08-28T03:05:43.659Z,9.23
2022-08-28T03:08:45.436Z,10.00
2022-08-28T03:11:47.256Z,9.40
2022-08-28T03:14:49.074Z,9.02
2022-08-28T03:17:51.174Z,11.73
2022-08-28T03:20:54.105Z,9.90
2022-08-28T03:23:55.842Z,8.40
2022-08-28T03:26:58.408Z,9.57
2022-08-28T03:30:00.256Z,10.00
2022-08-28T03:33:02.120Z,8.88
2022-08-28T03:36:04.886Z,10.82
2022-08-28T03:39:06.974Z,8.85
2022-08-28T03:42:09.127Z,9.02
2022-08-28T03:45:14.714Z,9.82
2022-08-28T03:48:16.814Z,8.23
2022-08-28T03:51:29.559Z,10.13
2022-08-28T03:54:33.516Z,11.05
2022-08-28T03:57:36.915Z,9.45
2022-08-28T04:00:40.415Z,9.95
2022-08-28T04:03:42.170Z,9.18
2022-08-28T04:06:43.938Z,11.10
2022-08-28T04:09:46.384Z,11.50
2022-08-28T04:12:48.262Z,11.10
2022-08-28T04:16:02.673Z,8.98
2022-08-28T04:19:08.340Z,9.32
2022-08-28T04:22:10.057Z,9.10
2022-08-28T04:25:11.821Z,8.45
2022-08-28T04:28:13.772Z,9.70
2022-08-28T04:31:17.044Z,9.77
2022-08-28T04:34:19.630Z,9.60
2022-08-28T04:37:21.765Z,9.13
2022-08-28T04:40:28.115Z,10.00
2022-08-28T04:43:29.906Z,9.65
2022-08-28T04:46:31.835Z,11.05
2022-08-28T04:49:33.735Z,9.50
2022-08-28T04:52:35.487Z,10.65
2022-08-28T04:55:54.903Z,11.10
2022-08-28T04:58:57.402Z,10.18
2022-08-28T05:01:59.195Z,8.45
2022-08-28T05:05:00.963Z,9.07
2022-08-28T05:08:02.880Z,10.07
2022-08-28T05:11:32.655Z,11.73
2022-08-28T05:14:36.745Z,13.68
2022-08-28T05:17:38.557Z,11.07
2022-08-28T05:20:44.718Z,12.20
2022-08-28T05:26:49.409Z,10.27
2022-08-28T05:29:51.190Z,10.60
2022-08-28T05:32:53.663Z,10.80
2022-08-28T05:35:55.468Z,9.88
2022-08-28T05:38:58.535Z,10.85
2022-08-28T05:42:00.320Z,10.98
2022-08-28T05:45:02.212Z,10.40
2022-08-28T05:48:04.168Z,11.32
2022-08-28T05:51:11.603Z,12.98
2022-08-28T05:54:14.997Z,13.05
2022-08-28T05:57:16.674Z,15.50
2022-08-28T06:00:18.494Z,14.45
2022-08-28T06:03:20.718Z,13.75
2022-08-28T06:06:24.821Z,14.40
2022-08-28T06:09:30.068Z,15.82
2022-08-28T06:12:32.097Z,15.13
2022-08-28T06:15:34.146Z,14.13
2022-08-28T06:18:35.941Z,13.00
2022-08-28T06:21:39.045Z,14.10
2022-08-28T06:24:40.874Z,13.50
2022-08-28T06:27:48.053Z,14.50
2022-08-28T06:31:17.875Z,15.40
2022-08-28T06:34:14.141Z,15.52
2022-08-28T06:37:15.900Z,15.27
2022-08-28T06:40:17.664Z,14.52
2022-08-28T06:43:22.701Z,16.20
2022-08-28T06:46:25.586Z,14.32
2022-08-28T06:49:27.479Z,15.68
2022-08-28T06:52:30.348Z,12.93
2022-08-28T06:55:32.168Z,14.93
2022-08-28T06:58:43.428Z,15.45
2022-08-28T07:01:55.565Z,15.88
2022-08-28T07:04:57.523Z,14.88
2022-08-28T07:07:59.367Z,15.02
2022-08-28T07:11:28.789Z,13.93
2022-08-28T07:14:30.586Z,13.80
2022-08-28T07:17:32.783Z,13.32
2022-08-28T07:20:34.608Z,13.52
2022-08-28T07:23:38.114Z,14.60
2022-08-28T07:26:42.457Z,13.60
2022-08-28T07:29:44.368Z,14.25
2022-08-28T07:32:49.753Z,15.52
2022-08-28T07:35:51.543Z,15.23
2022-08-28T07:38:55.705Z,12.65
2022-08-28T07:41:57.378Z,14.48
2022-08-28T07:44:59.442Z,15.25
2022-08-28T07:48:05.809Z,14.85
2022-08-28T07:51:10.463Z,14.70
2022-08-28T07:54:17.589Z,15.75
2022-08-28T07:57:21.260Z,16.33
2022-08-28T08:00:24.655Z,16.08
2022-08-28T08:03:26.749Z,17.42
2022-08-28T08:06:33.130Z,15.05
2022-08-28T08:09:39.013Z,15.93
2022-08-28T08:12:42.796Z,15.20
2022-08-28T08:15:44.807Z,15.52
2022-08-28T08:18:48.787Z,15.77
2022-08-28T08:21:53.236Z,16.75
2022-08-28T08:24:57.484Z,16.85
2022-08-28T08:27:59.688Z,17.13
2022-08-28T08:31:09.477Z,14.15
2022-08-28T08:34:11.564Z,14.52
2022-08-28T08:37:14.437Z,14.50
2022-08-28T08:40:19.610Z,14.88
2022-08-28T08:43:23.259Z,15.82
2022-08-28T08:46:34.135Z,13.25
2022-08-28T08:49:41.403Z,12.20
2022-08-28T08:53:03.514Z,12.77
2022-08-28T08:56:06.419Z,13.23
2022-08-28T08:59:16.851Z,14.38
2022-08-28T09:02:31.289Z,13.18
2022-08-28T09:05:48.513Z,12.30
2022-08-28T09:08:59.155Z,11.38
2022-08-28T09:12:05.755Z,11.65
2022-08-28T09:15:18.480Z,11.43
2022-08-28T09:18:34.681Z,12.35
2022-08-28T09:24:45.373Z,12.18
2022-08-28T09:27:47.953Z,12.38
2022-08-28T09:31:06.810Z,10.07
2022-08-28T09:34:25.303Z,11.55
2022-08-28T09:37:29.991Z,10.77
2022-08-28T09:40:51.751Z,11.23
2022-08-28T09:43:53.935Z,11.25
2022-08-28T09:46:55.758Z,12.15
2022-08-28T09:50:16.353Z,11.75
2022-08-28T09:53:22.102Z,10.07
2022-08-28T09:56:41.956Z,10.82
2022-08-28T09:59:43.793Z,10.38
2022-08-28T10:03:10.571Z,10.32
2022-08-28T10:06:38.771Z,9.45
2022-08-28T10:10:17.335Z,9.77
2022-08-28T10:13:30.961Z,9.13
2022-08-28T10:16:47.210Z,9.85
2022-08-28T10:20:13.237Z,9.23
2022-08-28T10:23:30.690Z,8.35
2022-08-28T10:26:59.688Z,9.90
2022-08-28T10:30:13.337Z,8.00
2022-08-28T10:33:52.350Z,7.88
2022-08-28T10:37:24.206Z,10.20
2022-08-28T10:40:34.877Z,8.45
2022-08-28T10:43:48.104Z,10.18
2022-08-28T10:46:55.664Z,7.80
2022-08-28T10:50:05.230Z,8.55
2022-08-28T10:53:14.590Z,8.45
2022-08-28T10:56:25.609Z,7.45
2022-08-28T10:59:31.994Z,8.10
2022-08-28T11:02:37.464Z,9.35
2022-08-28T11:06:11.858Z,9.32
2022-08-28T11:09:29.948Z,8.55
2022-08-28T11:12:41.793Z,10.52
2022-08-28T11:15:52.643Z,7.97
2022-08-28T11:19:16.007Z,7.50
2022-08-28T11:22:23.450Z,8.25
2022-08-28T11:25:35.676Z,8.52
2022-08-28T11:28:47.511Z,8.23
2022-08-28T11:32:29.534Z,9.35
2022-08-28T11:35:42.068Z,7.95
2022-08-28T11:38:44.031Z,8.18
2022-08-28T11:42:10.918Z,8.65
2022-08-28T11:45:40.018Z,7.93
2022-08-28T11:48:53.951Z,7.50
2022-08-28T11:52:20.599Z,8.88
2022-08-28T11:55:34.141Z,8.95
2022-08-28T11:59:10.641Z,8.88
2022-08-28T12:02:40.749Z,7.82
2022-08-28T12:05:45.894Z,7.63
2022-08-28T12:08:47.828Z,8.85
2022-08-28T12:11:51.623Z,7.95
2022-08-28T12:14:56.346Z,8.00
2022-08-28T12:18:03.014Z,8.40
2022-08-28T12:21:08.712Z,8.20
2022-08-28T12:24:35.147Z,7.60
2022-08-28T12:27:39.125Z,8.77
2022-08-28T12:31:06.941Z,7.13
2022-08-28T12:34:31.762Z,8.35
2022-08-28T12:37:52.636Z,7.72
2022-08-28T12:40:58.043Z,8.15
2022-08-28T12:44:00.635Z,7.22
2022-08-28T12:47:02.445Z,7.93
2022-08-28T12:50:22.680Z,7.72
2022-08-28T12:53:24.976Z,7.70
2022-08-28T12:56:34.059Z,7.32
2022-08-28T12:59:42.183Z,7.28
2022-08-28T13:02:46.499Z,7.18
2022-08-28T13:06:00.256Z,7.35
2022-08-28T13:09:14.833Z,8.38
2022-08-28T13:12:22.789Z,8.38
2022-08-28T13:16:02.263Z,7.22
2022-08-28T13:19:04.192Z,7.38
2022-08-28T13:22:27.939Z,7.40
2022-08-28T13:25:38.770Z,6.85
2022-08-28T13:28:42.872Z,9.00
2022-08-28T13:31:45.280Z,7.72
2022-08-28T13:35:25.558Z,7.90
2022-08-28T13:38:28.319Z,7.60
2022-08-28T13:41:33.068Z,8.57
2022-08-28T13:44:54.536Z,7.40
2022-08-28T13:47:56.337Z,7.20
2022-08-28T13:51:14.269Z,7.07
2022-08-28T13:54:25.224Z,7.28
2022-08-28T13:57:29.655Z,7.30
2022-08-28T14:00:36.818Z,6.70
2022-08-28T14:03:42.143Z,8.55
2022-08-28T14:09:47.130Z,6.90
2022-08-28T14:12:50.271Z,6.95
2022-08-28T14:15:52.447Z,7.88
2022-08-28T14:18:54.750Z,7.15
2022-08-28T14:21:57.622Z,6.57
2022-08-28T14:24:59.373Z,8.32
2022-08-28T14:28:01.327Z,7.00
2022-08-28T14:31:08.942Z,7.47
2022-08-28T14:34:17.637Z,7.03
2022-08-28T14:37:20.111Z,8.32
2022-08-28T14:40:22.358Z,6.28
2022-08-28T14:43:24.272Z,7.03
2022-08-28T14:46:33.814Z,7.13
2022-08-28T14:49:36.026Z,6.28
2022-08-28T14:52:39.002Z,7.18
2022-08-28T14:55:50.605Z,5.88
2022-08-28T14:58:52.430Z,7.20
2022-08-28T15:02:02.202Z,7.47
2022-08-28T15:05:04.311Z,6.45
2022-08-28T15:08:14.014Z,7.20
2022-08-28T15:11:18.964Z,6.95
2022-08-28T15:14:20.703Z,6.88
2022-08-28T15:17:23.660Z,7.18
2022-08-28T15:20:45.364Z,5.85
2022-08-28T15:23:50.573Z,6.35
2022-08-28T15:29:56.346Z,6.57
2022-08-28T15:33:28.979Z,6.20
2022-08-28T15:36:30.907Z,6.45
2022-08-28T15:39:56.217Z,6.57
2022-08-28T15:42:58.796Z,6.32
2022-08-28T15:46:21.067Z,6.80
2022-08-28T15:49:25.125Z,6.75
2022-08-28T15:52:27.118Z,6.45
2022-08-28T15:55:30.404Z,6.68
2022-08-28T15:58:32.117Z,5.97
2022-08-28T16:01:35.868Z,6.45
2022-08-28T16:04:41.297Z,5.82
2022-08-28T16:07:48.372Z,7.00
2022-08-28T16:10:51.649Z,6.28
2022-08-28T16:13:54.193Z,5.75
2022-08-28T16:16:56.262Z,5.88
2022-08-28T16:19:58.061Z,8.63
2022-08-28T16:22:59.880Z,6.75
2022-08-28T16:26:05.541Z,7.53
2022-08-28T16:29:07.818Z,6.20
2022-08-28T16:32:09.656Z,6.80
2022-08-28T16:35:15.056Z,6.53
2022-08-28T16:38:17.683Z,7.30
2022-08-28T16:41:24.963Z,6.40
2022-08-28T16:44:30.188Z,6.78
2022-08-28T16:47:33.622Z,5.88
2022-08-28T16:50:35.638Z,5.68
2022-08-28T16:53:39.033Z,6.82
2022-08-28T16:56:40.816Z,6.13
2022-08-28T16:59:43.440Z,5.93
2022-08-28T17:02:45.594Z,6.00
2022-08-28T17:05:47.462Z,5.68
2022-08-28T17:08:52.291Z,5.97
2022-08-28T17:11:59.024Z,6.47
2022-08-28T17:15:01.563Z,7.00
2022-08-28T17:18:03.276Z,6.68
2022-08-28T17:21:24.084Z,7.45
2022-08-28T17:24:25.985Z,6.53
2022-08-28T17:27:28.267Z,10.07
2022-08-28T17:30:30.370Z,6.60
2022-08-28T17:33:32.777Z,7.70
2022-08-28T17:36:36.787Z,6.75
2022-08-28T17:39:38.661Z,6.47
2022-08-28T17:42:40.652Z,6.70
2022-08-28T17:45:42.595Z,5.70
2022-08-28T17:48:47.943Z,6.32
2022-08-28T17:51:57.790Z,7.68
2022-08-28T17:55:00.201Z,6.95
2022-08-28T17:58:02.734Z,6.07
2022-08-28T18:01:05.076Z,6.72
2022-08-28T18:04:06.849Z,6.07
2022-08-28T18:07:09.095Z,6.30
2022-08-28T18:10:11.798Z,5.65
2022-08-28T18:13:15.029Z,7.22
2022-08-28T18:16:17.232Z,6.20
2022-08-28T18:19:19.800Z,7.15
2022-08-28T18:22:21.486Z,6.40
2022-08-28T18:25:41.614Z,5.95
2022-08-28T18:28:45.128Z,7.85
2022-08-28T18:31:46.845Z,6.57
2022-08-28T18:34:49.008Z,6.85
2022-08-28T18:37:51.278Z,7.50
2022-08-28T18:40:53.574Z,6.82
2022-08-28T18:43:56.298Z,6.82
2022-08-28T18:47:00.883Z,7.00
2022-08-28T18:50:05.042Z,7.03
2022-08-28T18:53:06.937Z,7.28
2022-08-28T18:56:08.809Z,7.30
2022-08-28T18:59:12.692Z,8.10
2022-08-28T19:02:15.975Z,6.10
2022-08-28T19:05:17.903Z,6.43
2022-08-28T19:08:19.614Z,7.20
2022-08-28T19:11:21.458Z,6.38
2022-08-28T19:14:23.700Z,7.75
2022-08-28T19:17:26.733Z,6.65
2022-08-28T19:20:30.008Z,7.03
2022-08-28T19:23:32.813Z,6.90
2022-08-28T19:26:34.969Z,6.70
2022-08-28T19:29:38.368Z,6.85
2022-08-28T19:32:41.561Z,7.70
2022-08-28T19:35:43.943Z,6.80
2022-08-28T19:38:45.766Z,7.32
2022-08-28T19:41:47.467Z,7.10
2022-08-28T19:44:59.598Z,6.32
2022-08-28T19:48:01.839Z,6.93
2022-08-28T19:51:14.355Z,7.15
2022-08-28T19:54:19.786Z,7.57
2022-08-28T19:57:21.400Z,7.25
2022-08-28T20:00:29.519Z,7.85
2022-08-28T20:03:31.484Z,7.18
2022-08-28T20:06:35.061Z,7.00
2022-08-28T20:09:37.034Z,7.80
2022-08-28T20:12:39.943Z,6.22
2022-08-28T20:15:50.073Z,8.32
2022-08-28T20:18:52.116Z,7.68
2022-08-28T20:21:54.649Z,8.20
2022-08-28T20:24:56.341Z,6.53
2022-08-28T20:28:01.555Z,6.85
2022-08-28T20:31:08.746Z,6.97
2022-08-28T20:34:12.268Z,7.55
2022-08-28T20:37:14.210Z,6.82
2022-08-28T20:40:19.916Z,7.03
2022-08-28T20:46:23.584Z,8.98
2022-08-28T20:49:25.407Z,6.93
2022-08-28T20:52:27.176Z,6.93
2022-08-28T20:55:28.915Z,7.18
2022-08-28T20:58:30.680Z,6.35
2022-08-28T21:01:33.838Z,6.60
2022-08-28T21:04:36.910Z,7.47
2022-08-28T21:07:40.416Z,7.18
2022-08-28T21:10:43.316Z,6.03
2022-08-28T21:13:45.217Z,6.90
2022-08-28T21:16:47.029Z,7.45
2022-08-28T21:19:52.019Z,8.38
2022-08-28T21:22:54.432Z,6.80
2022-08-28T21:25:56.128Z,6.40
2022-08-28T21:28:57.887Z,7.70
2022-08-28T21:32:00.013Z,6.93
2022-08-28T21:35:04.357Z,6.30
2022-08-28T21:38:06.064Z,7.00
2022-08-28T21:41:12.354Z,7.80
2022-08-28T21:44:14.281Z,6.10
2022-08-28T21:47:16.079Z,6.93
2022-08-28T21:50:18.340Z,6.72
2022-08-28T21:53:20.069Z,6.90
2022-08-28T21:56:24.840Z,7.10
2022-08-28T21:59:26.680Z,6.63
2022-08-28T22:02:34.407Z,6.80
2022-08-28T22:05:36.250Z,6.40
2022-08-28T22:08:39.301Z,8.40
2022-08-28T22:11:41.381Z,7.40
2022-08-28T22:14:43.673Z,6.85
2022-08-28T22:17:45.405Z,6.30
2022-08-28T22:21:06.295Z,6.43
2022-08-28T22:24:09.014Z,7.78
2022-08-28T22:27:13.472Z,6.35
2022-08-28T22:30:15.262Z,6.93
2022-08-28T22:33:16.917Z,6.90
2022-08-28T22:36:20.006Z,6.68
2022-08-28T22:39:21.755Z,6.93
2022-08-28T22:42:23.611Z,7.43
2022-08-28T22:45:25.730Z,7.45
2022-08-28T22:48:27.472Z,6.88
2022-08-28T22:51:34.458Z,8.00
2022-08-28T22:54:36.324Z,8.13
2022-08-28T22:57:38.138Z,7.82
2022-08-28T23:00:41.178Z,7.13
2022-08-28T23:03:43.413Z,7.20
2022-08-28T23:06:45.381Z,7.38
2022-08-28T23:09:47.504Z,6.50
2022-08-28T23:12:49.943Z,6.68
2022-08-28T23:15:51.765Z,7.18
2022-08-28T23:19:08.658Z,6.75
2022-08-28T23:22:11.280Z,7.35
2022-08-28T23:25:15.994Z,7.13
2022-08-28T23:28:18.918Z,7.57
2022-08-28T23:31:20.994Z,8.02
2022-08-28T23:34:23.572Z,7.97
2022-08-28T23:37:26.026Z,6.95
2022-08-28T23:40:28.137Z,6.28
2022-08-28T23:43:32.479Z,8.05
2022-08-28T23:46:34.383Z,6.70
2022-08-28T23:49:41.668Z,7.88
2022-08-28T23:52:45.269Z,6.45
2022-08-28T23:55:48.626Z,6.82
2022-08-28T23:58:53.221Z,7.03
